Time;durP1;ratioP1;P1;durP2;ratioP2;P2;SDS_P1;SDS_P2;PMS_P1;PMS_P2;Temp;Humidity;BMP_temperature;BMP_pressure;BME280_temperature;BME280_humidity;BME280_pressure;Samples;Min_cycle;Max_cycle;Signal;HPM_P1;HPM_P2
2023/08/03 00:01:19;;;;;;;2.30;1.70;;;;;;;;;;106891;1249;62480;-80
2023/08/03 00:03:45;;;;;;;3.40;1.70;;;;;;;;;;107410;1250;62509;-80
2023/08/03 00:06:11;;;;;;;3.10;2.10;;;;;;;;;;107403;1250;62073;-80
2023/08/03 00:08:38;;;;;;;2.00;1.20;;;;;;;;;;107561;1250;60251;-81
2023/08/03 00:11:04;;;;;;;2.40;1.60;;;;;;;;;;107516;1250;62032;-80
2023/08/03 00:13:31;;;;;;;2.10;1.30;;;;;;;;;;107488;1253;62147;-80
2023/08/03 00:15:57;;;;;;;2.60;1.20;;;;;;;;;;107519;1249;62010;-80
2023/08/03 00:18:24;;;;;;;4.60;1.40;;;;;;;;;;107352;1249;62200;-80
2023/08/03 00:20:50;;;;;;;5.00;1.40;;;;;;;;;;107153;1250;62582;-80
2023/08/03 00:23:16;;;;;;;8.90;2.20;;;;;;;;;;107117;1249;62236;-81
2023/08/03 00:25:43;;;;;;;2.30;1.30;;;;;;;;;;107384;1249;62065;-80
2023/08/03 00:28:09;;;;;;;3.00;1.70;;;;;;;;;;107373;1249;62051;-81
2023/08/03 00:30:35;;;;;;;2.90;1.10;;;;;;;;;;109933;1249;59686;-81
2023/08/03 00:33:02;;;;;;;2.10;1.20;;;;;;;;;;109183;1250;59947;-81
2023/08/03 00:35:28;;;;;;;2.80;1.60;;;;;;;;;;108696;1252;62029;-81
2023/08/03 00:37:55;;;;;;;2.20;1.40;;;;;;;;;;107302;1249;62048;-80
2023/08/03 00:40:21;;;;;;;12.40;6.00;;;;;;;;;;107160;1250;62077;-81
2023/08/03 00:42:47;;;;;;;17.70;8.50;;;;;;;;;;107977;1249;59683;-80
2023/08/03 00:45:14;;;;;;;13.70;6.20;;;;;;;;;;109944;1249;59637;-80
2023/08/03 00:47:40;;;;;;;3.50;2.50;;;;;;;;;;109920;1249;59902;-80
2023/08/03 00:50:07;;;;;;;5.60;2.20;;;;;;;;;;109859;1249;59711;-81
2023/08/03 00:52:34;;;;;;;2.60;1.60;;;;;;;;;;107440;1250;62221;-80
2023/08/03 00:55:00;;;;;;;2.30;1.40;;;;;;;;;;107180;1250;62171;-80
2023/08/03 00:57:29;;;;;;;6.50;2.80;;;;;;;;;;107197;1254;61983;-80
2023/08/03 00:59:55;;;;;;;2.10;1.60;;;;;;;;;;107178;1250;62003;-80
2023/08/03 01:02:22;;;;;;;2.00;1.00;;;;;;;;;;107154;1249;62500;-80
2023/08/03 01:04:48;;;;;;;3.10;1.30;;;;;;;;;;107158;1249;62135;-80
2023/08/03 01:07:14;;;;;;;2.20;1.70;;;;;;;;;;107175;1253;62668;-80
2023/08/03 01:09:41;;;;;;;3.40;1.50;;;;;;;;;;109486;1249;62027;-80
2023/08/03 01:12:07;;;;;;;3.60;1.80;;;;;;;;;;109926;1249;60074;-81
2023/08/03 01:14:34;;;;;;;4.10;1.60;;;;;;;;;;109948;1249;59688;-80
2023/08/03 01:17:00;;;;;;;2.70;1.70;;;;;;;;;;109935;1249;59936;-81
2023/08/03 01:19:26;;;;;;;2.60;1.30;;;;;;;;;;107852;1249;62179;-80
2023/08/03 01:21:53;;;;;;;3.20;1.80;;;;;;;;;;107178;1253;62089;-80
2023/08/03 01:24:19;;;;;;;2.80;1.60;;;;;;;;;;107195;1249;62090;-80
2023/08/03 01:26:46;;;;;;;4.10;1.40;;;;;;;;;;107149;1250;61047;-80
2023/08/03 01:29:12;;;;;;;2.70;1.30;;;;;;;;;;107189;1250;62001;-80
2023/08/03 01:31:39;;;;;;;3.60;1.60;;;;;;;;;;107164;1250;62019;-80
2023/08/03 01:34:05;;;;;;;10.80;2.20;;;;;;;;;;107145;1250;62090;-80
2023/08/03 01:36:31;;;;;;;3.30;1.50;;;;;;;;;;107154;1249;62035;-79
2023/08/03 01:39:07;;;;;;;4.90;2.20;;;;;;;;;;107191;1254;62000;-79
2023/08/03 01:41:34;;;;;;;7.20;2.10;;;;;;;;;;107103;1250;62123;-80
2023/08/03 01:44:20;;;;;;;5.30;3.30;;;;;;;;;;107209;1253;62135;-80
2023/08/03 01:46:47;;;;;;;7.00;3.10;;;;;;;;;;107235;1253;61926;-79
2023/08/03 01:49:13;;;;;;;6.00;2.40;;;;;;;;;;107218;1249;62082;-79
2023/08/03 01:51:40;;;;;;;6.40;2.00;;;;;;;;;;107144;1249;62083;-80
2023/08/03 01:54:08;;;;;;;2.40;1.60;;;;;;;;;;107177;1251;62045;-80
2023/08/03 01:56:34;;;;;;;4.40;2.20;;;;;;;;;;107208;1249;62043;-80
2023/08/03 01:59:00;;;;;;;4.70;1.70;;;;;;;;;;107237;1253;62142;-80
2023/08/03 02:01:27;;;;;;;3.30;1.70;;;;;;;;;;107181;1254;61985;-80
2023/08/03 02:03:53;;;;;;;2.70;1.60;;;;;;;;;;107248;1253;62113;-80
2023/08/03 02:06:19;;;;;;;4.10;2.00;;;;;;;;;;107155;1249;62111;-79
2023/08/03 02:08:46;;;;;;;4.20;1.70;;;;;;;;;;107227;1254;62140;-80
2023/08/03 02:11:12;;;;;;;4.90;1.60;;;;;;;;;;107145;1249;62509;-80
2023/08/03 02:13:38;;;;;;;5.70;1.90;;;;;;;;;;107176;1250;62138;-80
2023/08/03 02:16:10;;;;;;;3.80;1.60;;;;;;;;;;107211;1253;62028;-80
2023/08/03 02:18:37;;;;;;;2.40;1.70;;;;;;;;;;107224;1250;62157;-80
2023/08/03 02:21:03;;;;;;;5.90;1.80;;;;;;;;;;108279;1249;61920;-81
2023/08/03 02:23:30;;;;;;;4.00;2.50;;;;;;;;;;109950;1249;59840;-80
2023/08/03 02:25:56;;;;;;;5.80;2.10;;;;;;;;;;109955;1249;59621;-80
2023/08/03 02:28:23;;;;;;;4.60;1.90;;;;;;;;;;109947;1249;59671;-81
2023/08/03 02:30:49;;;;;;;3.50;1.90;;;;;;;;;;109820;1249;59674;-80
2023/08/03 02:33:15;;;;;;;3.70;1.80;;;;;;;;;;109938;1249;59690;-81
2023/08/03 02:35:42;;;;;;;3.30;1.80;;;;;;;;;;109049;1250;62143;-81
2023/08/03 02:38:09;;;;;;;3.80;2.00;;;;;;;;;;107204;1249;62052;-80
2023/08/03 02:40:35;;;;;;;2.90;1.80;;;;;;;;;;107173;1249;62052;-80
2023/08/03 02:43:01;;;;;;;6.30;2.20;;;;;;;;;;107162;1250;62068;-80
2023/08/03 02:45:28;;;;;;;3.50;1.70;;;;;;;;;;107155;1250;62062;-80
2023/08/03 02:47:55;;;;;;;4.00;1.90;;;;;;;;;;107131;1249;62067;-80
2023/08/03 02:50:21;;;;;;;3.50;1.80;;;;;;;;;;107218;1249;62166;-80
2023/08/03 02:52:49;;;;;;;3.10;1.90;;;;;;;;;;107128;1250;62131;-80
2023/08/03 02:55:16;;;;;;;5.20;2.00;;;;;;;;;;107178;1250;62154;-80
2023/08/03 02:57:43;;;;;;;3.80;1.70;;;;;;;;;;107160;1254;62024;-80
2023/08/03 03:00:09;;;;;;;3.70;2.10;;;;;;;;;;107133;1250;62483;-80
2023/08/03 03:02:36;;;;;;;5.00;1.80;;;;;;;;;;107138;1250;62161;-80
2023/08/03 03:05:03;;;;;;;3.30;1.60;;;;;;;;;;107190;1249;62064;-80
2023/08/03 03:07:33;;;;;;;4.40;2.20;;;;;;;;;;107179;1256;62146;-80
2023/08/03 03:09:59;;;;;;;2.20;1.60;;;;;;;;;;107863;1249;62020;-80
2023/08/03 03:12:26;;;;;;;3.20;1.90;;;;;;;;;;107512;1249;61945;-80
2023/08/03 03:14:52;;;;;;;2.60;1.50;;;;;;;;;;107123;1250;62166;-80
2023/08/03 03:17:18;;;;;;;5.80;2.30;;;;;;;;;;107160;1253;62129;-80
2023/08/03 03:19:45;;;;;;;3.40;1.60;;;;;;;;;;107177;1253;61178;-80
2023/08/03 03:22:11;;;;;;;5.30;1.90;;;;;;;;;;107131;1255;62142;-80
2023/08/03 03:24:37;;;;;;;5.70;2.80;;;;;;;;;;107187;1250;62138;-80
2023/08/03 03:27:04;;;;;;;4.20;1.60;;;;;;;;;;107236;1249;62792;-80
2023/08/03 03:29:31;;;;;;;2.60;1.70;;;;;;;;;;107186;1249;62142;-80
2023/08/03 03:31:57;;;;;;;5.10;1.90;;;;;;;;;;107122;1250;62223;-80
2023/08/03 03:34:24;;;;;;;4.80;2.20;;;;;;;;;;107197;1250;62694;-80
2023/08/03 03:36:50;;;;;;;2.50;1.50;;;;;;;;;;107157;1250;62141;-80
2023/08/03 03:39:16;;;;;;;3.50;2.00;;;;;;;;;;108205;1249;62113;-80
2023/08/03 03:41:45;;;;;;;5.10;1.70;;;;;;;;;;108803;1249;60046;-80
2023/08/03 03:44:11;;;;;;;3.90;1.90;;;;;;;;;;109909;1249;59692;-80
2023/08/03 03:46:37;;;;;;;3.90;2.40;;;;;;;;;;108538;1250;61742;-80
2023/08/03 03:49:04;;;;;;;5.70;2.40;;;;;;;;;;107265;1250;61918;-80
2023/08/03 03:51:30;;;;;;;4.60;2.00;;;;;;;;;;107739;1254;62152;-81
2023/08/03 03:53:56;;;;;;;4.10;2.60;;;;;;;;;;107176;1249;62235;-80
2023/08/03 03:56:23;;;;;;;5.40;2.30;;;;;;;;;;109255;1249;62858;-80
2023/08/03 03:58:49;;;;;;;6.10;2.10;;;;;;;;;;107158;1250;62153;-80
2023/08/03 04:01:15;;;;;;;5.40;2.40;;;;;;;;;;107149;1250;62578;-80
2023/08/03 04:03:42;;;;;;;2.60;2.20;;;;;;;;;;107151;1249;62595;-80
2023/08/03 04:06:08;;;;;;;2.80;1.60;;;;;;;;;;107105;1253;60292;-80
2023/08/03 04:08:34;;;;;;;3.80;2.20;;;;;;;;;;107150;1250;62067;-80
2023/08/03 04:11:01;;;;;;;4.00;2.00;;;;;;;;;;107139;1249;62072;-80
2023/08/03 04:13:27;;;;;;;5.50;2.60;;;;;;;;;;107172;1255;62163;-80
2023/08/03 04:15:53;;;;;;;7.50;2.80;;;;;;;;;;108327;1249;62014;-80
2023/08/03 04:18:20;;;;;;;6.70;2.60;;;;;;;;;;109947;1249;59701;-80
2023/08/03 04:20:46;;;;;;;5.00;2.50;;;;;;;;;;107223;1250;62128;-80
2023/08/03 04:23:13;;;;;;;6.90;2.40;;;;;;;;;;107093;1249;62029;-80
2023/08/03 04:25:39;;;;;;;6.80;2.50;;;;;;;;;;107140;1250;62086;-80
2023/08/03 04:28:05;;;;;;;5.50;2.40;;;;;;;;;;107125;1249;62093;-80
2023/08/03 04:30:32;;;;;;;3.90;2.10;;;;;;;;;;107114;1249;62064;-80
2023/08/03 04:32:58;;;;;;;4.00;2.20;;;;;;;;;;107136;1251;62114;-81
2023/08/03 04:35:25;;;;;;;3.80;2.00;;;;;;;;;;107298;1249;62072;-81
2023/08/03 04:37:52;;;;;;;4.10;2.30;;;;;;;;;;107145;1251;62250;-81
2023/08/03 04:40:18;;;;;;;5.90;2.20;;;;;;;;;;107538;1250;62199;-81
2023/08/03 04:42:44;;;;;;;3.10;2.10;;;;;;;;;;107144;1253;62014;-81
2023/08/03 04:45:11;;;;;;;4.60;2.90;;;;;;;;;;107122;1250;62131;-81
2023/08/03 04:47:38;;;;;;;4.00;2.70;;;;;;;;;;107092;1254;62144;-80
2023/08/03 04:50:04;;;;;;;3.30;2.20;;;;;;;;;;107111;1249;62176;-81
2023/08/03 04:52:31;;;;;;;7.20;2.70;;;;;;;;;;107164;1249;62288;-81
2023/08/03 04:54:57;;;;;;;9.30;3.00;;;;;;;;;;107125;1250;63276;-81
2023/08/03 04:57:23;;;;;;;10.60;2.90;;;;;;;;;;107103;1254;62006;-81
2023/08/03 04:59:50;;;;;;;8.90;3.80;;;;;;;;;;107158;1249;62054;-81
2023/08/03 05:02:16;;;;;;;7.40;3.60;;;;;;;;;;107126;1250;61985;-81
2023/08/03 05:04:42;;;;;;;6.70;3.20;;;;;;;;;;107133;1254;62032;-81
2023/08/03 05:07:09;;;;;;;8.70;3.40;;;;;;;;;;107389;1255;62206;-81
2023/08/03 05:09:35;;;;;;;9.20;3.30;;;;;;;;;;107167;1250;62243;-80
2023/08/03 05:12:02;;;;;;;16.00;3.50;;;;;;;;;;107149;1250;62612;-81
2023/08/03 05:14:28;;;;;;;6.00;3.00;;;;;;;;;;107160;1253;62029;-81
2023/08/03 05:16:54;;;;;;;7.20;3.50;;;;;;;;;;107155;1250;62091;-81
2023/08/03 05:19:21;;;;;;;5.60;3.20;;;;;;;;;;107178;1250;61161;-81
2023/08/03 05:21:48;;;;;;;5.80;3.20;;;;;;;;;;107170;1250;62143;-80
2023/08/03 05:24:14;;;;;;;5.80;3.40;;;;;;;;;;107153;1249;62207;-80
2023/08/03 05:26:40;;;;;;;3.20;2.30;;;;;;;;;;107186;1250;62159;-81
2023/08/03 05:29:07;;;;;;;7.50;5.40;;;;;;;;;;107300;1251;60469;-81
2023/08/03 05:31:34;;;;;;;6.30;3.10;;;;;;;;;;107175;1252;62028;-81
2023/08/03 05:34:00;;;;;;;8.70;3.30;;;;;;;;;;107154;1250;62007;-81
2023/08/03 05:36:26;;;;;;;4.60;2.70;;;;;;;;;;107149;1251;62361;-81
2023/08/03 05:38:53;;;;;;;3.10;2.10;;;;;;;;;;107180;1249;62147;-81
2023/08/03 05:41:20;;;;;;;4.00;2.50;;;;;;;;;;107172;1251;64232;-81
2023/08/03 05:43:47;;;;;;;7.70;2.50;;;;;;;;;;107225;1250;62096;-81
2023/08/03 05:46:13;;;;;;;5.30;2.80;;;;;;;;;;107195;1250;62152;-81
2023/08/03 05:48:40;;;;;;;4.30;2.80;;;;;;;;;;107187;1250;62596;-81
2023/08/03 05:51:06;;;;;;;4.20;2.40;;;;;;;;;;107148;1250;62142;-80
2023/08/03 05:53:33;;;;;;;3.70;2.80;;;;;;;;;;107244;1253;62040;-81
2023/08/03 05:55:59;;;;;;;6.90;3.10;;;;;;;;;;107134;1249;61937;-81
2023/08/03 05:58:25;;;;;;;4.80;2.80;;;;;;;;;;107164;1250;63069;-81
2023/08/03 06:00:52;;;;;;;4.30;2.60;;;;;;;;;;107107;1249;62064;-79
2023/08/03 06:03:19;;;;;;;4.20;2.70;;;;;;;;;;106600;1251;62175;-81
2023/08/03 06:05:45;;;;;;;7.30;2.60;;;;;;;;;;107300;1250;62101;-81
2023/08/03 06:08:15;;;;;;;4.00;2.50;;;;;;;;;;107621;1250;62055;-81
2023/08/03 06:10:42;;;;;;;6.70;2.40;;;;;;;;;;107765;1252;62188;-79
2023/08/03 06:13:12;;;;;;;7.30;2.70;;;;;;;;;;107683;1251;62609;-81
2023/08/03 06:15:39;;;;;;;8.20;2.30;;;;;;;;;;107626;1249;61912;-81
2023/08/03 06:18:07;;;;;;;4.20;2.70;;;;;;;;;;107626;1250;61808;-81
2023/08/03 06:20:34;;;;;;;6.50;2.30;;;;;;;;;;107682;1249;61921;-81
2023/08/03 06:23:00;;;;;;;5.30;2.60;;;;;;;;;;107718;1251;62082;-81
2023/08/03 06:25:27;;;;;;;3.30;2.10;;;;;;;;;;107720;1249;61930;-81
2023/08/03 06:27:55;;;;;;;3.70;2.40;;;;;;;;;;107772;1253;62039;-81
2023/08/03 06:30:21;;;;;;;3.70;2.40;;;;;;;;;;107623;1250;62043;-81
2023/08/03 06:32:48;;;;;;;3.70;2.60;;;;;;;;;;107892;1250;62162;-79
2023/08/03 06:35:25;;;;;;;5.60;2.20;;;;;;;;;;107034;1253;62168;-81
2023/08/03 06:37:53;;;;;;;3.60;2.60;;;;;;;;;;107631;1251;62035;-80
2023/08/03 06:40:19;;;;;;;4.50;2.60;;;;;;;;;;107705;1255;60736;-81
2023/08/03 06:42:45;;;;;;;5.80;2.50;;;;;;;;;;107530;1253;62051;-80
2023/08/03 06:45:13;;;;;;;7.40;3.10;;;;;;;;;;107160;1251;62041;-80
2023/08/03 06:47:40;;;;;;;4.20;2.80;;;;;;;;;;107066;1252;62067;-81
2023/08/03 06:50:08;;;;;;;4.80;2.60;;;;;;;;;;107213;1250;62029;-80
2023/08/03 06:52:35;;;;;;;4.80;2.30;;;;;;;;;;107491;1256;62019;-81
2023/08/03 06:55:01;;;;;;;6.30;2.80;;;;;;;;;;107739;1253;61954;-81
2023/08/03 06:57:28;;;;;;;4.30;2.90;;;;;;;;;;107674;1250;61720;-81
2023/08/03 06:59:55;;;;;;;7.80;3.40;;;;;;;;;;107502;1254;62187;-80
2023/08/03 07:02:22;;;;;;;7.60;4.20;;;;;;;;;;107349;1249;61919;-80
2023/08/03 07:04:48;;;;;;;7.60;4.20;;;;;;;;;;107563;1252;61944;-80
2023/08/03 07:07:14;;;;;;;15.20;6.00;;;;;;;;;;107833;1250;62036;-81
2023/08/03 07:09:41;;;;;;;7.70;5.10;;;;;;;;;;107935;1250;155368;-81
2023/08/03 07:12:08;;;;;;;7.90;4.10;;;;;;;;;;107952;1250;62130;-81
2023/08/03 07:14:35;;;;;;;6.70;4.00;;;;;;;;;;107854;1249;60307;-80
2023/08/03 07:17:01;;;;;;;6.30;3.50;;;;;;;;;;107776;1263;62129;-80
2023/08/03 07:19:28;;;;;;;8.60;3.70;;;;;;;;;;107989;1249;62066;-81
2023/08/03 07:21:54;;;;;;;7.70;3.50;;;;;;;;;;107806;1253;62143;-80
2023/08/03 07:24:20;;;;;;;7.20;4.10;;;;;;;;;;107612;1249;62213;-81
2023/08/03 07:26:47;;;;;;;4.90;3.40;;;;;;;;;;107595;1251;62485;-80
2023/08/03 07:29:14;;;;;;;7.90;3.90;;;;;;;;;;107637;1251;61949;-80
2023/08/03 07:31:40;;;;;;;5.80;3.00;;;;;;;;;;107637;1251;62064;-79
2023/08/03 07:34:06;;;;;;;7.20;2.80;;;;;;;;;;107482;1248;62070;-80
2023/08/03 07:36:33;;;;;;;5.80;2.80;;;;;;;;;;107292;1251;61916;-80
2023/08/03 07:38:59;;;;;;;5.70;2.90;;;;;;;;;;107055;1254;62161;-80
2023/08/03 07:41:26;;;;;;;5.90;3.80;;;;;;;;;;107051;1253;62134;-80
2023/08/03 07:43:53;;;;;;;5.10;3.10;;;;;;;;;;107109;1251;62410;-80
2023/08/03 07:46:19;;;;;;;6.40;3.40;;;;;;;;;;107152;1253;62014;-80
2023/08/03 07:48:45;;;;;;;5.80;2.80;;;;;;;;;;107086;1253;62088;-80
2023/08/03 07:51:12;;;;;;;4.60;2.70;;;;;;;;;;107155;1252;62127;-80
2023/08/03 07:53:39;;;;;;;4.30;2.80;;;;;;;;;;107095;1253;61951;-80
2023/08/03 07:56:18;;;;;;;3.10;2.10;;;;;;;;;;106962;1254;62467;-80
2023/08/03 07:58:44;;;;;;;2.30;1.60;;;;;;;;;;107032;1253;62090;-80
2023/08/03 08:01:11;;;;;;;2.30;1.40;;;;;;;;;;107162;1251;62524;-80
2023/08/03 08:03:38;;;;;;;8.00;2.00;;;;;;;;;;107025;1251;62056;-80
2023/08/03 08:06:08;;;;;;;3.70;2.30;;;;;;;;;;107173;1254;62041;-80
2023/08/03 08:08:34;;;;;;;3.10;1.40;;;;;;;;;;107092;1253;62140;-80
2023/08/03 08:11:01;;;;;;;3.60;2.00;;;;;;;;;;107022;1249;62100;-79
2023/08/03 08:13:28;;;;;;;4.10;1.90;;;;;;;;;;107199;1254;62073;-79
2023/08/03 08:16:04;;;;;;;4.00;1.70;;;;;;;;;;107025;1254;62151;-80
2023/08/03 08:18:37;;;;;;;5.00;1.70;;;;;;;;;;107137;1255;62116;-80
2023/08/03 08:21:07;;;;;;;3.40;1.80;;;;;;;;;;106880;1251;61906;-80
2023/08/03 08:23:34;;;;;;;2.70;1.80;;;;;;;;;;107060;1252;62130;-80
2023/08/03 08:26:00;;;;;;;5.60;4.00;;;;;;;;;;107155;1257;62031;-80
2023/08/03 08:28:27;;;;;;;4.80;3.30;;;;;;;;;;107333;1250;62123;-79
2023/08/03 08:30:54;;;;;;;5.50;2.80;;;;;;;;;;107380;1251;59994;-79
2023/08/03 08:33:21;;;;;;;3.60;1.60;;;;;;;;;;107476;1253;62499;-80
2023/08/03 08:35:48;;;;;;;3.30;1.80;;;;;;;;;;107413;1250;62130;-80
2023/08/03 08:38:15;;;;;;;3.50;1.60;;;;;;;;;;106701;1255;62080;-79
2023/08/03 08:40:42;;;;;;;3.10;2.00;;;;;;;;;;107437;1250;61981;-79
2023/08/03 08:43:08;;;;;;;6.40;3.80;;;;;;;;;;107810;1251;62139;-80
2023/08/03 08:45:38;;;;;;;8.40;4.80;;;;;;;;;;106710;1251;62109;-79
2023/08/03 08:48:04;;;;;;;8.00;4.20;;;;;;;;;;106697;1252;62027;-80
2023/08/03 08:50:31;;;;;;;4.30;2.80;;;;;;;;;;106710;1253;62152;-79
2023/08/03 08:52:58;;;;;;;4.50;1.90;;;;;;;;;;106765;1255;62137;-79
2023/08/03 08:55:25;;;;;;;2.80;2.00;;;;;;;;;;107438;1254;62058;-80
2023/08/03 08:57:51;;;;;;;8.10;3.30;;;;;;;;;;107335;1251;62044;-80
2023/08/03 09:00:18;;;;;;;3.80;2.40;;;;;;;;;;107354;1254;62064;-82
2023/08/03 09:02:45;;;;;;;4.60;2.60;;;;;;;;;;107131;1251;62111;-81
2023/08/03 09:05:14;;;;;;;10.90;2.60;;;;;;;;;;107461;1252;60447;-80
2023/08/03 09:07:41;;;;;;;7.30;4.40;;;;;;;;;;107517;1251;62040;-80
2023/08/03 09:10:08;;;;;;;8.70;5.70;;;;;;;;;;107314;1254;62090;-80
2023/08/03 09:12:35;;;;;;;10.20;7.10;;;;;;;;;;107490;1251;62069;-80
2023/08/03 09:15:01;;;;;;;9.60;5.40;;;;;;;;;;107335;1251;62016;-80
2023/08/03 09:17:28;;;;;;;7.40;4.50;;;;;;;;;;107394;1251;62102;-80
2023/08/03 09:19:54;;;;;;;5.00;3.30;;;;;;;;;;107306;1253;61989;-80
2023/08/03 09:22:21;;;;;;;3.10;2.20;;;;;;;;;;107238;1251;62061;-80
2023/08/03 09:25:01;;;;;;;4.30;2.70;;;;;;;;;;107277;1254;62037;-81
2023/08/03 09:27:27;;;;;;;4.20;2.40;;;;;;;;;;107184;1253;62155;-80
2023/08/03 09:30:00;;;;;;;4.40;2.30;;;;;;;;;;107199;1251;61910;-80
2023/08/03 09:32:34;;;;;;;6.30;2.50;;;;;;;;;;107310;1253;60975;-80
2023/08/03 09:35:01;;;;;;;4.00;2.60;;;;;;;;;;107244;1251;60740;-81
2023/08/03 09:37:34;;;;;;;6.30;2.00;;;;;;;;;;107153;1251;62044;-80
2023/08/03 09:40:04;;;;;;;3.20;2.00;;;;;;;;;;107928;1250;61598;-80
2023/08/03 09:42:31;;;;;;;3.60;2.60;;;;;;;;;;107697;1251;62063;-80
2023/08/03 09:45:04;;;;;;;5.40;3.10;;;;;;;;;;107232;1253;62145;-80
2023/08/03 09:47:36;;;;;;;7.80;5.10;;;;;;;;;;107312;1253;62037;-80
2023/08/03 09:50:03;;;;;;;5.90;2.50;;;;;;;;;;107196;1251;62106;-80
2023/08/03 09:52:30;;;;;;;3.90;2.00;;;;;;;;;;107188;1254;61046;-80
2023/08/03 09:55:02;;;;;;;1.90;1.30;;;;;;;;;;107271;1251;61069;-80
2023/08/03 09:57:29;;;;;;;6.20;3.00;;;;;;;;;;107122;1250;62220;-80
2023/08/03 09:59:58;;;;;;;3.40;2.00;;;;;;;;;;107161;1251;61910;-80
2023/08/03 10:02:25;;;;;;;3.40;1.80;;;;;;;;;;107696;1251;60163;-80
2023/08/03 10:04:53;;;;;;;3.10;2.00;;;;;;;;;;107118;1250;62123;-81
2023/08/03 10:07:19;;;;;;;2.60;1.80;;;;;;;;;;108277;1249;61901;-81
2023/08/03 10:09:49;;;;;;;4.70;1.40;;;;;;;;;;108581;1251;60203;-80
2023/08/03 10:12:20;;;;;;;2.40;1.40;;;;;;;;;;107400;1251;62110;-81
2023/08/03 10:14:47;;;;;;;3.00;1.90;;;;;;;;;;107194;1253;62243;-80
2023/08/03 10:17:13;;;;;;;2.60;1.30;;;;;;;;;;107414;1253;62669;-81
2023/08/03 10:19:40;;;;;;;7.10;4.40;;;;;;;;;;107454;1251;62139;-80
2023/08/03 10:22:07;;;;;;;5.60;2.70;;;;;;;;;;107394;1251;60070;-80
2023/08/03 10:24:34;;;;;;;3.40;1.60;;;;;;;;;;107352;1251;62120;-80
2023/08/03 10:27:19;;;;;;;5.40;3.70;;;;;;;;;;107245;1251;61924;-81
2023/08/03 10:29:52;;;;;;;2.90;2.20;;;;;;;;;;107360;1253;62034;-80
2023/08/03 10:32:26;;;;;;;3.30;1.60;;;;;;;;;;107482;1251;61942;-81
2023/08/03 10:34:56;;;;;;;33.70;21.10;;;;;;;;;;107305;1249;62224;-80
2023/08/03 10:37:23;;;;;;;10.30;6.50;;;;;;;;;;107382;1251;61899;-81
2023/08/03 10:39:51;;;;;;;9.40;5.50;;;;;;;;;;107359;1251;62133;-81
2023/08/03 10:42:20;;;;;;;3.00;2.30;;;;;;;;;;107358;1251;60409;-81
2023/08/03 10:44:47;;;;;;;2.80;1.80;;;;;;;;;;107345;1251;62000;-81
2023/08/03 10:47:22;;;;;;;2.50;1.70;;;;;;;;;;107262;1251;62123;-80
2023/08/03 10:49:49;;;;;;;2.50;1.60;;;;;;;;;;107223;1251;62127;-81
2023/08/03 10:52:19;;;;;;;4.80;3.30;;;;;;;;;;107753;1251;62128;-80
2023/08/03 10:54:46;;;;;;;6.20;5.00;;;;;;;;;;107362;1249;62180;-81
2023/08/03 10:57:13;;;;;;;7.00;6.30;;;;;;;;;;107292;1253;62022;-81
2023/08/03 10:59:40;;;;;;;3.20;1.90;;;;;;;;;;107398;1250;61963;-81
2023/08/03 11:02:22;;;;;;;5.40;2.20;;;;;;;;;;107491;1251;62108;-81
2023/08/03 11:04:50;;;;;;;3.10;1.50;;;;;;;;;;107541;1253;61138;-81
2023/08/03 11:07:21;;;;;;;5.20;1.90;;;;;;;;;;107264;1253;62002;-80
2023/08/03 11:09:48;;;;;;;5.10;2.10;;;;;;;;;;107550;1251;62410;-81
2023/08/03 11:12:16;;;;;;;3.10;1.80;;;;;;;;;;107466;1251;62012;-80
2023/08/03 11:14:44;;;;;;;4.70;1.90;;;;;;;;;;107568;1250;61957;-81
2023/08/03 11:17:12;;;;;;;3.80;2.00;;;;;;;;;;109126;1250;62172;-81
2023/08/03 11:19:38;;;;;;;5.60;3.50;;;;;;;;;;107217;1251;62140;-81
2023/08/03 11:22:05;;;;;;;5.70;4.10;;;;;;;;;;107183;1251;63207;-80
2023/08/03 11:24:32;;;;;;;6.70;3.20;;;;;;;;;;107288;1254;62014;-80
2023/08/03 11:26:58;;;;;;;9.50;3.00;;;;;;;;;;107235;1251;62064;-80
2023/08/03 11:29:25;;;;;;;6.70;3.20;;;;;;;;;;107226;1254;62036;-81
2023/08/03 11:31:51;;;;;;;9.00;4.30;;;;;;;;;;107368;1251;62060;-80
2023/08/03 11:34:18;;;;;;;9.70;4.40;;;;;;;;;;107228;1253;62030;-81
2023/08/03 11:36:48;;;;;;;7.80;3.90;;;;;;;;;;107435;1251;63498;-81
2023/08/03 11:39:14;;;;;;;6.80;4.00;;;;;;;;;;107498;1251;63804;-81
2023/08/03 11:41:41;;;;;;;5.20;2.80;;;;;;;;;;107262;1251;62083;-80
2023/08/03 11:44:07;;;;;;;6.10;2.50;;;;;;;;;;107209;1251;61923;-81
2023/08/03 11:46:34;;;;;;;3.10;2.40;;;;;;;;;;107259;1250;62515;-81
2023/08/03 11:49:03;;;;;;;5.40;2.70;;;;;;;;;;107261;1251;62127;-81
2023/08/03 11:51:33;;;;;;;2.80;2.30;;;;;;;;;;107242;1251;62111;-80
2023/08/03 11:54:00;;;;;;;4.20;2.60;;;;;;;;;;107279;1251;62141;-81
2023/08/03 11:56:26;;;;;;;3.30;2.40;;;;;;;;;;107196;1251;61978;-80
2023/08/03 11:58:53;;;;;;;4.80;2.40;;;;;;;;;;107204;1250;62974;-81
2023/08/03 12:01:23;;;;;;;4.90;2.40;;;;;;;;;;107249;1254;62136;-80
2023/08/03 12:03:49;;;;;;;3.30;2.30;;;;;;;;;;107283;1250;61933;-80
2023/08/03 12:06:15;;;;;;;4.10;3.20;;;;;;;;;;107217;1250;61969;-81
2023/08/03 12:08:45;;;;;;;4.40;2.70;;;;;;;;;;107291;1253;62661;-80
2023/08/03 12:11:16;;;;;;;4.60;2.50;;;;;;;;;;107320;1251;62142;-80
2023/08/03 12:13:43;;;;;;;3.90;3.00;;;;;;;;;;107278;1251;61938;-80
2023/08/03 12:16:10;;;;;;;5.00;2.80;;;;;;;;;;107300;1251;62081;-81
2023/08/03 12:18:36;;;;;;;3.90;2.70;;;;;;;;;;107200;1250;62246;-81
2023/08/03 12:21:03;;;;;;;5.00;2.70;;;;;;;;;;107255;1254;62066;-81
2023/08/03 12:23:29;;;;;;;7.70;3.00;;;;;;;;;;107168;1250;62032;-81
2023/08/03 12:25:55;;;;;;;4.40;2.50;;;;;;;;;;107275;1251;62060;-80
2023/08/03 12:28:22;;;;;;;5.90;2.40;;;;;;;;;;107224;1253;62062;-81
2023/08/03 12:30:48;;;;;;;8.00;5.20;;;;;;;;;;107471;1251;62091;-80
2023/08/03 12:33:15;;;;;;;4.10;2.90;;;;;;;;;;107691;1251;62150;-81
2023/08/03 12:35:41;;;;;;;7.30;2.60;;;;;;;;;;107499;1251;62061;-81
2023/08/03 12:38:07;;;;;;;9.00;3.20;;;;;;;;;;107587;1250;62165;-81
2023/08/03 12:40:34;;;;;;;14.50;10.50;;;;;;;;;;107474;1250;62230;-81
2023/08/03 12:43:00;;;;;;;8.50;4.40;;;;;;;;;;107572;1249;62002;-81
2023/08/03 12:45:26;;;;;;;5.50;4.00;;;;;;;;;;107525;1250;62041;-80
2023/08/03 12:47:54;;;;;;;6.90;4.00;;;;;;;;;;107445;1251;62348;-81
2023/08/03 12:50:20;;;;;;;5.70;4.00;;;;;;;;;;107276;1250;61892;-81
2023/08/03 12:52:47;;;;;;;5.70;3.70;;;;;;;;;;107206;1251;61954;-81
2023/08/03 12:55:13;;;;;;;5.80;3.80;;;;;;;;;;107709;1251;61972;-81
2023/08/03 12:57:40;;;;;;;10.40;4.80;;;;;;;;;;107372;1251;62083;-81
2023/08/03 13:00:06;;;;;;;7.60;4.90;;;;;;;;;;107449;1249;62092;-80
2023/08/03 13:02:33;;;;;;;7.90;4.30;;;;;;;;;;107268;1250;62551;-80
2023/08/03 13:04:59;;;;;;;15.80;4.30;;;;;;;;;;107351;1250;62188;-80
2023/08/03 13:07:26;;;;;;;15.40;5.30;;;;;;;;;;107281;1251;61974;-81
2023/08/03 13:09:52;;;;;;;10.20;3.70;;;;;;;;;;107229;1251;62006;-81
2023/08/03 13:12:18;;;;;;;22.20;5.90;;;;;;;;;;107233;1251;62115;-81
2023/08/03 13:14:45;;;;;;;6.60;3.50;;;;;;;;;;107264;1250;62173;-81
2023/08/03 13:17:11;;;;;;;7.90;4.20;;;;;;;;;;107258;1249;62261;-81
2023/08/03 13:19:38;;;;;;;5.70;3.20;;;;;;;;;;107823;1250;62209;-81
2023/08/03 13:22:04;;;;;;;6.40;2.80;;;;;;;;;;107547;1250;62060;-81
2023/08/03 13:24:30;;;;;;;5.10;4.10;;;;;;;;;;107713;1250;62044;-82
2023/08/03 13:27:15;;;;;;;5.20;3.70;;;;;;;;;;107259;1253;62056;-81
2023/08/03 13:29:43;;;;;;;8.00;5.30;;;;;;;;;;107230;1250;62058;-81
2023/08/03 13:32:10;;;;;;;16.50;14.90;;;;;;;;;;107269;1250;62009;-80
2023/08/03 13:34:36;;;;;;;24.80;8.60;;;;;;;;;;107549;1250;62137;-80
2023/08/03 13:37:02;;;;;;;16.00;5.30;;;;;;;;;;107453;1250;61988;-80
2023/08/03 13:39:29;;;;;;;31.40;7.30;;;;;;;;;;107493;1249;62025;-79
2023/08/03 13:41:55;;;;;;;22.70;6.20;;;;;;;;;;107252;1251;61116;-80
2023/08/03 13:44:21;;;;;;;9.60;3.70;;;;;;;;;;107314;1250;62064;-80
2023/08/03 13:46:48;;;;;;;13.10;5.00;;;;;;;;;;107235;1254;62123;-79
2023/08/03 13:49:14;;;;;;;7.50;4.30;;;;;;;;;;107298;1249;62025;-80
2023/08/03 13:51:41;;;;;;;9.80;4.10;;;;;;;;;;107219;1249;60666;-80
2023/08/03 13:54:07;;;;;;;10.20;5.90;;;;;;;;;;107604;1251;62079;-80
2023/08/03 13:56:34;;;;;;;21.70;7.80;;;;;;;;;;109850;1250;59875;-80
2023/08/03 13:59:00;;;;;;;18.60;9.50;;;;;;;;;;109835;1249;60014;-80
2023/08/03 14:01:27;;;;;;;12.20;7.80;;;;;;;;;;109760;1249;59833;-80
2023/08/03 14:03:54;;;;;;;9.60;5.80;;;;;;;;;;107438;1252;62697;-79
2023/08/03 14:06:21;;;;;;;8.80;6.00;;;;;;;;;;107354;1253;62058;-79
2023/08/03 14:08:47;;;;;;;8.90;4.50;;;;;;;;;;107429;1250;62096;-80
2023/08/03 14:11:14;;;;;;;8.20;3.80;;;;;;;;;;107606;1253;62103;-79
2023/08/03 14:13:40;;;;;;;5.60;3.40;;;;;;;;;;107730;1249;62131;-80
2023/08/03 14:16:09;;;;;;;7.80;4.70;;;;;;;;;;107615;1248;62034;-80
2023/08/03 14:18:36;;;;;;;7.90;4.10;;;;;;;;;;107556;1251;62031;-80
2023/08/03 14:21:03;;;;;;;8.60;4.10;;;;;;;;;;107647;1250;62109;-80
2023/08/03 14:23:29;;;;;;;9.70;4.70;;;;;;;;;;107840;1253;60082;-80
2023/08/03 14:25:55;;;;;;;8.20;5.60;;;;;;;;;;107425;1250;61946;-80
2023/08/03 14:28:22;;;;;;;10.60;6.40;;;;;;;;;;107469;1250;62141;-80